Time;durP1;ratioP1;P1;durP2;ratioP2;P2;SDS_P1;SDS_P2;PMS_P1;PMS_P2;Temp;Humidity;BMP_temperature;BMP_pressure;BME280_temperature;BME280_humidity;BME280_pressure;Samples;Min_cycle;Max_cycle;Signal;HPM_P1;HPM_P2
2022/04/24 00:00:15;;;;;;;1.50;1.00;;;13.40;75.90;;;;;;5054662;28;20847;-76
2022/04/24 00:02:42;;;;;;;1.47;1.00;;;13.40;76.00;;;;;;5057779;28;20818;-77
2022/04/24 00:05:10;;;;;;;1.50;0.93;;;13.30;76.50;;;;;;5055373;28;20669;-77
2022/04/24 00:07:37;;;;;;;1.50;1.00;;;13.30;76.50;;;;;;5056769;28;20877;-76
2022/04/24 00:10:06;;;;;;;1.43;0.90;;;13.20;76.60;;;;;;5052170;28;20474;-76
2022/04/24 00:12:33;;;;;;;1.50;1.00;;;13.10;76.70;;;;;;5061639;28;20462;-76
2022/04/24 00:14:59;;;;;;;1.50;1.00;;;13.10;76.90;;;;;;5071574;28;20485;-77
2022/04/24 00:17:26;;;;;;;1.43;1.00;;;13.10;77.10;;;;;;5064453;28;20942;-76
2022/04/24 00:19:53;;;;;;;1.50;1.07;;;13.00;77.00;;;;;;5055472;28;20458;-78
2022/04/24 00:22:19;;;;;;;1.50;1.00;;;13.00;77.10;;;;;;5061962;28;20469;-79
2022/04/24 00:24:46;;;;;;;1.43;1.00;;;13.00;77.10;;;;;;5054082;28;20488;-76
2022/04/24 00:27:14;;;;;;;1.47;1.00;;;13.00;77.40;;;;;;5061232;28;20842;-76
2022/04/24 00:29:42;;;;;;;1.40;1.00;;;13.00;77.60;;;;;;5061125;28;20477;-78
2022/04/24 00:32:10;;;;;;;1.40;1.00;;;12.90;77.70;;;;;;5058845;28;20888;-76
2022/04/24 00:34:36;;;;;;;1.40;1.00;;;12.90;77.90;;;;;;5060477;28;20482;-76
2022/04/24 00:37:03;;;;;;;1.43;1.00;;;12.90;78.10;;;;;;5056406;28;20855;-76
2022/04/24 00:39:30;;;;;;;1.40;1.03;;;12.90;77.90;;;;;;5060500;28;20457;-76
2022/04/24 00:41:57;;;;;;;1.50;1.00;;;12.80;78.20;;;;;;5059684;28;20891;-76
2022/04/24 00:44:26;;;;;;;1.47;1.00;;;12.80;78.30;;;;;;5058670;28;20886;-76
2022/04/24 00:46:58;;;;;;;1.47;1.00;;;12.70;78.70;;;;;;5055409;28;20462;-76
2022/04/24 00:49:25;;;;;;;1.43;1.00;;;12.70;78.70;;;;;;5051130;28;20573;-76
2022/04/24 00:51:52;;;;;;;1.43;1.00;;;12.60;79.10;;;;;;5055473;28;20461;-76
2022/04/24 00:54:19;;;;;;;1.43;1.00;;;12.60;79.10;;;;;;5063939;28;20481;-76
2022/04/24 00:56:46;;;;;;;1.43;1.00;;;12.60;79.20;;;;;;5057842;28;20461;-76
2022/04/24 00:59:15;;;;;;;1.40;1.00;;;12.60;79.10;;;;;;5070658;28;20949;-76
2022/04/24 01:01:44;;;;;;;1.50;1.00;;;12.60;79.00;;;;;;5058012;28;20461;-76
2022/04/24 01:04:12;;;;;;;1.50;1.00;;;12.50;79.20;;;;;;5060644;28;20853;-76
2022/04/24 01:06:40;;;;;;;1.47;1.00;;;12.50;79.30;;;;;;5057240;28;20461;-76
2022/04/24 01:09:15;;;;;;;1.50;1.00;;;12.50;79.30;;;;;;5052956;28;20490;-76
2022/04/24 01:11:43;;;;;;;1.47;1.00;;;12.50;79.40;;;;;;5057260;28;20463;-76
2022/04/24 01:14:10;;;;;;;1.40;1.00;;;12.50;79.40;;;;;;5057529;28;20490;-76
2022/04/24 01:16:36;;;;;;;1.43;1.00;;;12.50;79.50;;;;;;5064934;28;20493;-76
2022/04/24 01:19:05;;;;;;;1.50;1.00;;;12.40;79.70;;;;;;5051619;28;20458;-76
2022/04/24 01:21:34;;;;;;;1.43;1.00;;;12.40;79.80;;;;;;5063608;28;20459;-76
2022/04/24 01:24:04;;;;;;;1.40;1.00;;;12.30;79.90;;;;;;5061081;28;20481;-76
2022/04/24 01:26:31;;;;;;;1.43;1.10;;;12.30;79.90;;;;;;5051263;28;20465;-76
2022/04/24 01:28:57;;;;;;;1.50;1.00;;;12.30;80.10;;;;;;5063478;28;20576;-76
2022/04/24 01:31:24;;;;;;;1.50;1.10;;;12.20;80.30;;;;;;5058376;28;20481;-76
2022/04/24 01:33:51;;;;;;;1.47;0.93;;;12.20;80.30;;;;;;5059547;28;20480;-76
2022/04/24 01:36:18;;;;;;;1.50;1.00;;;12.20;80.40;;;;;;5059095;28;20914;-76
2022/04/24 01:38:46;;;;;;;1.47;1.10;;;12.20;80.20;;;;;;5064011;28;20464;-76
2022/04/24 01:41:12;;;;;;;1.47;1.00;;;12.20;80.30;;;;;;5052924;28;20970;-76
2022/04/24 01:43:41;;;;;;;1.50;1.20;;;12.10;80.40;;;;;;5062817;28;20492;-76
2022/04/24 01:46:08;;;;;;;1.50;1.10;;;12.20;80.50;;;;;;5070072;28;20728;-76
2022/04/24 01:48:35;;;;;;;1.47;1.00;;;12.10;80.60;;;;;;5059221;28;20841;-76
2022/04/24 01:51:03;;;;;;;1.50;1.00;;;12.10;80.70;;;;;;5057947;28;20485;-76
2022/04/24 01:53:30;;;;;;;1.60;1.30;;;12.10;81.00;;;;;;5053946;28;20485;-76
2022/04/24 01:55:59;;;;;;;1.47;1.07;;;12.00;81.30;;;;;;5060476;28;20465;-76
2022/04/24 01:58:25;;;;;;;1.50;1.10;;;11.90;81.70;;;;;;5053520;28;20458;-76
2022/04/24 02:00:52;;;;;;;1.40;1.03;;;11.90;81.80;;;;;;5051098;28;20757;-76
2022/04/24 02:03:20;;;;;;;1.47;0.93;;;11.90;82.10;;;;;;5058856;28;20850;-76
2022/04/24 02:05:47;;;;;;;1.50;1.00;;;11.80;82.30;;;;;;5061056;28;20833;-76
2022/04/24 02:08:14;;;;;;;1.50;1.00;;;11.80;82.10;;;;;;5056804;28;20459;-76
2022/04/24 02:10:42;;;;;;;1.50;1.10;;;11.80;82.40;;;;;;5056969;28;20461;-76
2022/04/24 02:13:10;;;;;;;1.50;1.00;;;11.70;82.90;;;;;;5059896;28;20958;-76
2022/04/24 02:15:37;;;;;;;1.50;1.10;;;11.70;83.10;;;;;;5062865;28;20465;-76
2022/04/24 02:18:04;;;;;;;1.40;1.03;;;11.60;83.40;;;;;;5058470;28;20846;-76
2022/04/24 02:20:31;;;;;;;1.47;1.03;;;11.60;83.50;;;;;;5068249;28;21007;-76
2022/04/24 02:22:58;;;;;;;1.47;1.00;;;11.60;83.40;;;;;;5057220;28;20481;-76
2022/04/24 02:25:25;;;;;;;1.47;1.03;;;11.60;83.70;;;;;;5065533;28;20841;-76
2022/04/24 02:27:54;;;;;;;1.43;1.03;;;11.50;83.50;;;;;;5053875;28;20474;-76
2022/04/24 02:30:23;;;;;;;1.47;1.00;;;11.50;83.60;;;;;;5063094;28;20481;-75
2022/04/24 02:32:51;;;;;;;1.43;1.00;;;11.50;83.80;;;;;;5054811;28;20550;-76
2022/04/24 02:35:17;;;;;;;1.50;1.10;;;11.50;83.60;;;;;;5061364;28;20458;-76
2022/04/24 02:37:45;;;;;;;1.50;1.10;;;11.50;84.20;;;;;;5057872;28;20461;-76
2022/04/24 02:40:14;;;;;;;1.50;1.10;;;11.40;84.20;;;;;;5048614;28;20529;-75
2022/04/24 02:42:41;;;;;;;1.40;1.00;;;11.40;84.20;;;;;;5049473;28;20838;-76
2022/04/24 02:45:09;;;;;;;1.50;1.10;;;11.40;84.40;;;;;;5049336;28;20484;-76
2022/04/24 02:47:38;;;;;;;1.50;1.00;;;11.30;84.60;;;;;;5048870;28;20494;-76
2022/04/24 02:50:07;;;;;;;1.40;1.00;;;11.20;84.80;;;;;;5049242;28;20465;-76
2022/04/24 02:52:44;;;;;;;1.43;0.93;;;11.20;84.40;;;;;;5055320;28;20470;-76
2022/04/24 02:55:11;;;;;;;1.47;1.10;;;11.20;84.20;;;;;;5064047;28;20839;-76
2022/04/24 02:57:38;;;;;;;1.47;1.00;;;11.20;84.80;;;;;;5056921;28;20493;-76
2022/04/24 03:00:07;;;;;;;1.43;1.00;;;11.20;84.80;;;;;;5065120;28;20485;-75
2022/04/24 03:02:42;;;;;;;1.50;1.20;;;11.20;84.70;;;;;;5056123;28;20462;-76
2022/04/24 03:05:10;;;;;;;1.47;1.00;;;11.10;84.80;;;;;;5051946;28;20466;-76
2022/04/24 03:07:37;;;;;;;1.47;1.10;;;11.10;85.00;;;;;;5054366;28;20859;-76
2022/04/24 03:10:04;;;;;;;1.47;1.03;;;11.00;85.10;;;;;;5067978;28;20469;-76
2022/04/24 03:12:31;;;;;;;1.50;1.10;;;11.00;84.90;;;;;;5061329;28;20572;-75
2022/04/24 03:14:58;;;;;;;1.50;1.10;;;11.00;85.40;;;;;;5055344;28;20495;-76
2022/04/24 03:17:25;;;;;;;1.43;1.10;;;10.90;85.40;;;;;;5054801;28;20827;-76
2022/04/24 03:19:53;;;;;;;1.47;1.07;;;10.90;85.60;;;;;;5047704;28;20749;-76
2022/04/24 03:22:20;;;;;;;1.43;1.10;;;10.90;85.60;;;;;;5056447;28;20465;-76
2022/04/24 03:24:47;;;;;;;1.43;1.00;;;10.90;85.50;;;;;;5068033;28;20492;-76
2022/04/24 03:27:14;;;;;;;1.50;1.07;;;10.80;85.80;;;;;;5062571;28;20898;-76
2022/04/24 03:29:41;;;;;;;1.47;1.10;;;10.80;85.50;;;;;;5050318;28;21121;-76
2022/04/24 03:32:09;;;;;;;1.50;1.10;;;10.70;86.20;;;;;;5055680;28;20470;-76
2022/04/24 03:34:37;;;;;;;1.50;1.10;;;10.70;85.90;;;;;;5057294;28;20490;-76
2022/04/24 03:37:05;;;;;;;1.50;1.10;;;10.70;86.00;;;;;;5065073;28;20475;-76
2022/04/24 03:39:32;;;;;;;1.40;1.00;;;10.70;86.10;;;;;;5058158;28;20537;-76
2022/04/24 03:41:59;;;;;;;1.50;1.20;;;10.70;86.00;;;;;;5054255;28;20773;-76
2022/04/24 03:44:26;;;;;;;1.43;1.10;;;10.70;86.30;;;;;;5048043;28;20501;-76
2022/04/24 03:46:53;;;;;;;1.50;1.10;;;10.70;86.40;;;;;;5053976;28;20470;-76
2022/04/24 03:49:19;;;;;;;1.43;1.10;;;10.70;86.40;;;;;;5062842;28;20973;-76
2022/04/24 03:51:46;;;;;;;1.47;1.10;;;10.60;86.80;;;;;;5062071;28;20454;-76
2022/04/24 03:54:14;;;;;;;1.43;1.00;;;10.60;86.50;;;;;;5060093;28;20992;-76
2022/04/24 03:56:41;;;;;;;1.50;1.07;;;10.60;86.70;;;;;;5054651;28;20461;-76
2022/04/24 03:59:08;;;;;;;1.47;1.10;;;10.60;86.70;;;;;;5057836;28;20466;-76
2022/04/24 04:01:35;;;;;;;1.50;1.10;;;10.50;86.70;;;;;;5052148;28;20462;-78
2022/04/24 04:04:02;;;;;;;1.50;1.10;;;10.50;86.70;;;;;;5056320;28;20508;-78
2022/04/24 04:06:29;;;;;;;1.47;1.10;;;10.50;87.00;;;;;;5062533;28;20482;-78
2022/04/24 04:08:56;;;;;;;1.47;1.00;;;10.50;87.00;;;;;;5053894;28;20478;-78
2022/04/24 04:11:26;;;;;;;1.43;1.10;;;10.40;86.90;;;;;;5051925;28;20466;-78
2022/04/24 04:13:53;;;;;;;1.50;1.10;;;10.40;87.10;;;;;;5059066;28;20533;-75
2022/04/24 04:16:20;;;;;;;1.43;1.10;;;10.50;86.80;;;;;;5052222;28;20458;-78
2022/04/24 04:18:47;;;;;;;1.50;1.03;;;10.50;86.80;;;;;;5051843;28;20470;-78
2022/04/24 04:21:14;;;;;;;1.50;1.20;;;10.40;86.70;;;;;;5049971;28;20489;-76
2022/04/24 04:23:40;;;;;;;1.40;1.10;;;10.40;86.90;;;;;;5059864;28;20560;-76
2022/04/24 04:26:07;;;;;;;1.47;1.00;;;10.40;87.00;;;;;;5058892;28;20553;-76
2022/04/24 04:28:35;;;;;;;1.40;1.00;;;10.40;86.80;;;;;;5055527;28;20474;-76
2022/04/24 04:31:02;;;;;;;1.47;1.10;;;10.40;86.60;;;;;;5050481;28;20454;-76
2022/04/24 04:33:29;;;;;;;1.47;1.10;;;10.40;87.00;;;;;;5060034;28;20694;-76
2022/04/24 04:35:56;;;;;;;1.43;1.10;;;10.40;86.90;;;;;;5055901;28;20462;-76
2022/04/24 04:38:23;;;;;;;1.50;1.20;;;10.40;86.90;;;;;;5058614;28;20470;-76
2022/04/24 04:40:49;;;;;;;1.50;1.10;;;10.30;87.00;;;;;;5051837;28;20497;-76
2022/04/24 04:43:16;;;;;;;1.50;1.10;;;10.30;87.10;;;;;;5086901;22;20885;-78
2022/04/24 04:45:44;;;;;;;1.40;1.00;;;10.30;87.60;;;;;;5046864;28;20600;-77
2022/04/24 04:48:11;;;;;;;1.47;1.20;;;10.30;87.60;;;;;;5035159;28;20466;-77
2022/04/24 04:50:38;;;;;;;1.47;1.10;;;10.30;87.40;;;;;;5032127;28;20458;-77
2022/04/24 04:53:05;;;;;;;1.43;1.10;;;10.30;87.90;;;;;;5032979;28;20832;-77
2022/04/24 04:55:31;;;;;;;1.50;1.10;;;10.30;87.60;;;;;;5036786;28;20513;-77
2022/04/24 04:57:58;;;;;;;1.43;1.10;;;10.20;87.70;;;;;;5031189;28;20470;-77
2022/04/24 05:00:26;;;;;;;1.50;1.10;;;10.20;87.80;;;;;;5031186;28;20560;-77
2022/04/24 05:02:54;;;;;;;1.43;1.07;;;10.20;87.90;;;;;;5032428;28;21058;-77
2022/04/24 05:05:21;;;;;;;1.50;1.00;;;10.20;87.90;;;;;;5043568;28;20567;-77
2022/04/24 05:07:48;;;;;;;1.40;1.03;;;10.20;88.40;;;;;;5039772;28;20842;-77
2022/04/24 05:10:14;;;;;;;1.43;1.10;;;10.20;87.90;;;;;;5034761;28;20470;-77
2022/04/24 05:12:41;;;;;;;1.47;1.00;;;10.20;87.90;;;;;;5050004;28;20462;-77
2022/04/24 05:15:12;;;;;;;1.43;1.10;;;10.20;87.80;;;;;;5038055;28;21031;-77
2022/04/24 05:17:40;;;;;;;1.47;1.10;;;10.20;88.00;;;;;;5041843;28;20578;-77
2022/04/24 05:20:11;;;;;;;1.50;1.20;;;10.20;88.10;;;;;;5044317;28;20487;-77
2022/04/24 05:22:39;;;;;;;1.40;1.00;;;10.20;88.20;;;;;;5042129;28;20463;-78
2022/04/24 05:25:09;;;;;;;1.50;1.10;;;10.30;87.90;;;;;;5050611;28;20493;-77
2022/04/24 05:27:37;;;;;;;1.47;1.10;;;10.30;88.20;;;;;;5037632;28;20466;-78
2022/04/24 05:30:07;;;;;;;1.40;1.00;;;10.40;88.20;;;;;;5037465;28;20527;-78
2022/04/24 05:32:46;;;;;;;1.47;1.00;;;10.50;88.60;;;;;;5040093;28;20461;-77
2022/04/24 05:35:16;;;;;;;1.43;1.07;;;10.70;87.80;;;;;;5030759;28;20478;-77
2022/04/24 05:37:45;;;;;;;1.47;1.10;;;10.90;87.10;;;;;;5034967;28;20550;-77
2022/04/24 05:40:13;;;;;;;1.50;1.10;;;11.10;86.70;;;;;;5037659;28;20483;-77
2022/04/24 05:42:45;;;;;;;1.43;1.00;;;11.20;86.00;;;;;;5033328;28;20466;-77
2022/04/24 05:45:15;;;;;;;1.40;1.10;;;11.20;86.20;;;;;;5036106;28;21011;-77
2022/04/24 05:47:42;;;;;;;1.47;1.00;;;11.10;86.00;;;;;;5031299;28;20972;-77
2022/04/24 05:50:09;;;;;;;1.47;1.10;;;11.10;86.10;;;;;;5036887;28;20545;-77
2022/04/24 05:52:37;;;;;;;1.43;1.07;;;11.20;86.10;;;;;;5035506;28;20459;-78
2022/04/24 05:55:05;;;;;;;1.43;1.00;;;11.20;86.00;;;;;;5043033;28;20478;-77
2022/04/24 05:57:31;;;;;;;1.50;1.10;;;11.30;86.10;;;;;;5038100;28;20475;-77
2022/04/24 05:59:59;;;;;;;1.50;1.10;;;11.30;85.90;;;;;;5032402;28;20869;-77
2022/04/24 06:02:25;;;;;;;1.50;1.10;;;11.30;85.60;;;;;;5039921;28;20467;-76
2022/04/24 06:04:54;;;;;;;1.43;1.00;;;11.40;85.60;;;;;;5032449;28;20483;-77
2022/04/24 06:07:23;;;;;;;1.40;1.00;;;11.50;85.60;;;;;;5033789;28;20582;-77
2022/04/24 06:09:51;;;;;;;1.43;1.00;;;11.60;85.50;;;;;;5042939;28;20523;-77
2022/04/24 06:12:18;;;;;;;1.47;1.00;;;11.70;85.10;;;;;;5040403;28;20463;-77
2022/04/24 06:14:45;;;;;;;1.50;1.10;;;11.80;85.10;;;;;;5040871;28;20498;-77
2022/04/24 06:17:12;;;;;;;1.40;1.00;;;11.80;85.20;;;;;;5038104;28;20469;-77
2022/04/24 06:19:39;;;;;;;1.50;1.10;;;11.80;84.90;;;;;;5036885;28;20460;-76
2022/04/24 06:22:06;;;;;;;1.50;1.00;;;11.80;84.90;;;;;;5039560;28;20979;-76
2022/04/24 06:24:33;;;;;;;1.43;1.00;;;11.80;84.90;;;;;;5045715;28;20478;-77
2022/04/24 06:27:01;;;;;;;1.47;1.00;;;11.80;84.70;;;;;;5042851;28;20463;-77
2022/04/24 06:29:28;;;;;;;1.50;1.10;;;11.90;84.70;;;;;;5032732;28;20517;-77
2022/04/24 06:31:55;;;;;;;1.50;0.90;;;11.90;84.50;;;;;;5037950;28;20474;-77
2022/04/24 06:34:22;;;;;;;1.47;1.00;;;11.90;84.50;;;;;;5035547;28;20471;-77
2022/04/24 06:36:50;;;;;;;1.47;1.00;;;11.90;84.50;;;;;;5036901;28;20459;-77
2022/04/24 06:39:17;;;;;;;1.50;1.10;;;12.00;84.30;;;;;;5031032;28;20999;-77
2022/04/24 06:41:43;;;;;;;1.40;0.90;;;12.10;84.30;;;;;;5032518;28;20498;-77
2022/04/24 06:44:11;;;;;;;1.50;1.00;;;12.10;84.40;;;;;;5035577;28;20498;-77
2022/04/24 06:46:38;;;;;;;1.40;1.00;;;12.20;84.10;;;;;;5043730;28;20470;-77
2022/04/24 06:49:06;;;;;;;2.57;2.37;;;12.20;83.90;;;;;;5031671;28;20477;-77
2022/04/24 06:51:33;;;;;;;1.47;1.00;;;12.30;83.80;;;;;;5036987;28;20482;-77
2022/04/24 06:53:59;;;;;;;1.40;1.00;;;12.40;83.80;;;;;;5042242;28;20776;-78
2022/04/24 06:56:26;;;;;;;1.40;0.97;;;12.50;83.60;;;;;;5045159;28;20550;-77
2022/04/24 06:58:53;;;;;;;1.70;1.53;;;12.60;83.50;;;;;;5030737;28;20459;-78
2022/04/24 07:01:22;;;;;;;2.83;2.63;;;12.70;83.60;;;;;;5040144;28;20508;-77
2022/04/24 07:03:49;;;;;;;2.33;2.13;;;12.80;83.10;;;;;;5036019;28;21067;-77
2022/04/24 07:06:16;;;;;;;1.40;0.93;;;12.90;83.30;;;;;;5049931;28;20462;-77
2022/04/24 07:08:43;;;;;;;1.40;1.00;;;13.10;82.50;;;;;;5049965;28;20470;-77
2022/04/24 07:11:10;;;;;;;1.50;1.00;;;13.30;82.30;;;;;;5047501;28;20462;-77
2022/04/24 07:13:38;;;;;;;1.40;0.93;;;13.50;81.50;;;;;;5028832;28;20489;-78
2022/04/24 07:16:06;;;;;;;1.43;0.90;;;13.70;81.40;;;;;;5032436;28;20478;-78
2022/04/24 07:18:34;;;;;;;1.47;1.00;;;13.80;80.60;;;;;;5031006;28;20467;-77
2022/04/24 07:21:02;;;;;;;1.67;1.33;;;13.90;79.90;;;;;;5029992;28;20865;-77
2022/04/24 07:23:29;;;;;;;1.50;1.00;;;13.90;79.80;;;;;;5030058;28;20468;-77
2022/04/24 07:25:56;;;;;;;1.50;1.00;;;13.90;80.20;;;;;;5047210;28;20478;-77
2022/04/24 07:28:23;;;;;;;1.47;1.00;;;14.00;80.40;;;;;;5030799;28;20851;-77
2022/04/24 07:30:50;;;;;;;1.50;1.10;;;14.10;80.40;;;;;;5029606;28;20459;-78
2022/04/24 07:33:16;;;;;;;1.43;1.00;;;14.30;80.40;;;;;;5031453;28;20469;-77
2022/04/24 07:35:45;;;;;;;1.63;1.40;;;14.50;79.40;;;;;;5030539;28;20759;-77
2022/04/24 07:38:11;;;;;;;1.50;1.00;;;14.50;79.30;;;;;;5029274;28;20959;-77
2022/04/24 07:40:40;;;;;;;1.47;0.90;;;14.60;79.60;;;;;;5035209;28;20545;-77
2022/04/24 07:43:08;;;;;;;1.43;0.93;;;14.80;78.50;;;;;;5037783;28;20520;-78
2022/04/24 07:45:36;;;;;;;1.40;1.00;;;14.70;78.30;;;;;;5030716;28;20842;-78
2022/04/24 07:48:05;;;;;;;1.50;1.30;;;14.90;79.30;;;;;;5035967;28;20469;-77
2022/04/24 07:50:35;;;;;;;1.50;1.00;;;15.10;78.90;;;;;;5050678;28;20469;-78
2022/04/24 07:53:04;;;;;;;1.50;1.00;;;15.60;77.40;;;;;;5034269;28;20528;-78
2022/04/24 07:55:31;;;;;;;1.50;1.20;;;15.80;77.20;;;;;;5044249;28;20840;-77
2022/04/24 07:58:10;;;;;;;1.50;1.00;;;16.20;76.60;;;;;;5054510;28;20569;-77
2022/04/24 08:00:40;;;;;;;1.40;0.90;;;16.60;76.30;;;;;;5052796;28;20486;-76
2022/04/24 08:03:09;;;;;;;1.40;0.90;;;17.00;75.50;;;;;;5057882;28;20457;-78
2022/04/24 08:05:37;;;;;;;1.50;1.00;;;17.20;73.60;;;;;;5058813;28;20500;-77
2022/04/24 08:08:08;;;;;;;1.50;1.00;;;17.30;73.30;;;;;;5061289;28;20492;-78
2022/04/24 08:10:40;;;;;;;1.83;1.73;;;17.50;74.30;;;;;;5062976;28;20468;-78
2022/04/24 08:13:08;;;;;;;1.47;0.90;;;17.70;72.40;;;;;;5058304;28;20462;-78
2022/04/24 08:15:37;;;;;;;1.40;0.90;;;17.70;71.60;;;;;;5064731;28;20480;-79
2022/04/24 08:18:05;;;;;;;1.93;1.73;;;17.70;71.40;;;;;;5047765;28;20513;-77
2022/04/24 08:20:37;;;;;;;1.50;1.00;;;17.80;71.90;;;;;;5060432;28;20488;-80
2022/04/24 08:25:54;;;;;;;1.47;0.90;;;17.80;71.40;;;;;;4416246;26;20467;-78
2022/04/24 08:28:25;;;;;;;1.50;1.10;;;17.80;71.90;;;;;;5111910;28;20469;-78
2022/04/24 08:30:52;;;;;;;1.50;0.90;;;18.00;72.10;;;;;;5101075;28;20505;-78
2022/04/24 08:33:19;;;;;;;1.43;0.90;;;18.10;71.80;;;;;;5104574;28;20451;-77
2022/04/24 08:35:48;;;;;;;1.47;0.90;;;18.30;71.60;;;;;;5104448;28;20752;-78
2022/04/24 08:38:19;;;;;;;1.40;0.90;;;18.50;70.60;;;;;;5103908;28;20509;-76
2022/04/24 08:40:47;;;;;;;1.50;1.10;;;18.40;69.80;;;;;;5102407;28;20568;-77
2022/04/24 08:43:15;;;;;;;1.47;0.90;;;18.30;70.70;;;;;;5104795;28;21002;-78
2022/04/24 08:45:42;;;;;;;1.50;1.10;;;18.10;71.10;;;;;;5103080;28;20456;-76
2022/04/24 08:48:09;;;;;;;1.47;0.90;;;18.10;71.00;;;;;;5099628;28;21230;-76
2022/04/24 08:50:37;;;;;;;2.23;1.83;;;18.10;70.80;;;;;;5103116;28;20464;-76
2022/04/24 08:53:06;;;;;;;1.47;0.90;;;18.20;71.30;;;;;;5103994;28;20452;-77
2022/04/24 08:55:42;;;;;;;1.43;0.90;;;18.40;71.20;;;;;;5100854;28;20573;-77
2022/04/24 08:58:10;;;;;;;1.50;1.00;;;18.50;70.60;;;;;;5102866;28;20463;-79
2022/04/24 09:00:38;;;;;;;1.50;0.90;;;18.60;70.60;;;;;;5103184;28;20464;-77
2022/04/24 09:03:07;;;;;;;1.40;0.90;;;18.70;70.50;;;;;;5101311;28;20506;-77
2022/04/24 09:05:34;;;;;;;1.50;0.90;;;18.70;69.90;;;;;;5105766;28;20589;-76
2022/04/24 09:08:12;;;;;;;1.43;1.00;;;18.80;70.30;;;;;;5102397;28;20514;-76
2022/04/24 09:10:52;;;;;;;1.43;0.90;;;19.00;69.10;;;;;;5105218;28;20509;-76
2022/04/24 09:13:27;;;;;;;1.50;1.10;;;19.10;69.80;;;;;;5105179;28;20465;-75
2022/04/24 09:15:58;;;;;;;1.87;1.40;;;19.30;68.80;;;;;;5106180;28;20554;-76
2022/04/24 09:18:41;;;;;;;1.50;0.90;;;19.40;68.50;;;;;;5096980;28;20532;-76
2022/04/24 09:21:11;;;;;;;1.43;0.90;;;19.60;68.00;;;;;;5106243;28;20490;-76
2022/04/24 09:23:38;;;;;;;1.47;0.90;;;19.60;67.30;;;;;;5110225;28;20523;-76
2022/04/24 09:26:07;;;;;;;1.40;0.90;;;19.50;67.80;;;;;;5093747;28;20464;-75
2022/04/24 09:28:37;;;;;;;1.47;0.90;;;19.70;68.80;;;;;;5103831;28;20460;-77
2022/04/24 09:31:05;;;;;;;1.60;1.43;;;19.80;68.80;;;;;;5102583;28;20516;-76
2022/04/24 09:33:38;;;;;;;1.50;0.90;;;20.10;68.50;;;;;;5102888;28;20456;-77
2022/04/24 09:36:06;;;;;;;1.43;0.90;;;20.40;66.20;;;;;;5098062;28;20464;-77
2022/04/24 09:38:40;;;;;;;1.47;0.90;;;20.30;66.10;;;;;;5096907;28;20547;-77
2022/04/24 09:41:18;;;;;;;1.50;0.90;;;20.20;66.10;;;;;;5096707;28;20490;-76
2022/04/24 09:43:45;;;;;;;1.97;1.23;;;20.20;67.30;;;;;;5099517;28;20551;-76
2022/04/24 09:46:12;;;;;;;1.50;1.00;;;20.10;67.60;;;;;;5101057;28;20562;-76
2022/04/24 09:48:39;;;;;;;1.47;0.90;;;20.20;66.70;;;;;;5105963;28;20470;-76
2022/04/24 09:51:09;;;;;;;1.50;0.90;;;20.30;65.90;;;;;;5099211;28;21246;-77
2022/04/24 09:53:42;;;;;;;1.50;0.90;;;20.40;65.90;;;;;;5098233;28;20810;-77
2022/04/24 09:56:11;;;;;;;1.50;1.03;;;20.50;66.60;;;;;;5096396;28;20451;-76
2022/04/24 09:58:39;;;;;;;1.43;0.90;;;20.60;66.20;;;;;;5099499;28;20465;-76
2022/04/24 10:01:09;;;;;;;1.47;0.90;;;20.60;66.90;;;;;;5095593;28;20484;-75
2022/04/24 10:03:43;;;;;;;1.50;1.00;;;20.80;66.30;;;;;;5099337;28;20484;-77
2022/04/24 10:06:22;;;;;;;1.47;0.90;;;20.70;64.90;;;;;;5098269;28;20530;-77
2022/04/24 10:08:51;;;;;;;1.47;0.90;;;20.90;66.10;;;;;;5103618;28;20472;-77
2022/04/24 10:11:20;;;;;;;1.50;1.10;;;20.90;65.40;;;;;;5096190;28;20963;-77
2022/04/24 10:13:55;;;;;;;1.50;1.00;;;21.00;65.40;;;;;;5104228;28;20567;-77
2022/04/24 10:16:47;;;;;;;1.47;0.90;;;21.00;65.30;;;;;;5099878;28;20555;-77
2022/04/24 10:19:25;;;;;;;1.47;0.90;;;21.10;64.50;;;;;;5096903;28;20472;-76
2022/04/24 10:22:02;;;;;;;1.47;0.90;;;21.10;65.00;;;;;;5097103;28;20578;-76
2022/04/24 10:24:42;;;;;;;1.50;1.10;;;21.30;65.10;;;;;;5108331;28;20491;-77
2022/04/24 10:27:11;;;;;;;1.43;0.90;;;21.30;65.60;;;;;;5104791;28;20459;-77
2022/04/24 10:29:51;;;;;;;1.47;0.90;;;21.40;64.70;;;;;;5100870;28;20456;-76
2022/04/24 10:32:36;;;;;;;1.47;0.90;;;21.50;64.30;;;;;;5094172;28;20622;-78
2022/04/24 10:38:09;;;;;;;1.50;0.90;;;21.50;64.00;;;;;;5099742;28;20624;-77
2022/04/24 10:40:36;;;;;;;1.47;0.90;;;21.60;63.90;;;;;;5099565;28;20547;-75
2022/04/24 10:43:08;;;;;;;1.43;0.90;;;21.80;65.40;;;;;;5095784;28;20568;-77
2022/04/24 10:45:53;;;;;;;1.50;0.90;;;21.90;64.00;;;;;;5095972;28;20484;-78
2022/04/24 10:48:21;;;;;;;1.43;0.80;;;22.00;64.00;;;;;;5097058;28;20805;-76
2022/04/24 10:50:52;;;;;;;1.47;0.90;;;22.10;63.70;;;;;;5094929;28;20476;-78
2022/04/24 10:53:19;;;;;;;1.43;0.87;;;22.10;63.30;;;;;;5102268;28;20887;-77
2022/04/24 10:55:47;;;;;;;1.70;1.30;;;22.00;63.60;;;;;;5096980;28;20483;-76
2022/04/24 10:58:26;;;;;;;1.50;0.90;;;22.10;64.30;;;;;;5095415;28;20511;-77
2022/04/24 11:00:55;;;;;;;1.50;0.90;;;22.30;64.40;;;;;;5097703;28;20468;-77
2022/04/24 11:03:23;;;;;;;1.40;0.90;;;22.60;62.50;;;;;;5096739;28;20530;-76
2022/04/24 11:05:59;;;;;;;1.70;1.57;;;22.60;62.10;;;;;;5099018;28;20562;-77
2022/04/24 11:08:26;;;;;;;1.77;1.67;;;22.70;62.00;;;;;;5095255;28;20972;-76
2022/04/24 11:11:05;;;;;;;1.50;0.93;;;22.40;61.40;;;;;;5110936;27;20974;-77
2022/04/24 11:13:33;;;;;;;1.50;1.10;;;22.20;63.20;;;;;;5095323;28;20465;-76
2022/04/24 11:16:03;;;;;;;1.60;1.20;;;22.50;62.30;;;;;;5094817;28;20755;-77
2022/04/24 11:18:29;;;;;;;1.40;0.90;;;22.50;61.50;;;;;;5095981;28;20459;-76
2022/04/24 11:20:58;;;;;;;1.50;1.00;;;22.50;62.10;;;;;;5097967;28;20941;-77
2022/04/24 11:23:32;;;;;;;1.40;0.90;;;22.70;61.20;;;;;;5098964;28;20495;-78
2022/04/24 11:26:02;;;;;;;1.40;0.80;;;22.60;60.10;;;;;;5092673;28;20550;-76
2022/04/24 11:28:37;;;;;;;1.43;0.90;;;22.50;60.50;;;;;;5094961;28;20975;-77
2022/04/24 11:31:14;;;;;;;1.80;1.13;;;22.30;61.10;;;;;;5096497;28;20479;-76
2022/04/24 11:33:56;;;;;;;1.40;0.83;;;22.20;60.80;;;;;;5091108;28;20916;-78
2022/04/24 11:36:26;;;;;;;1.40;0.90;;;22.00;61.40;;;;;;5093321;28;20513;-77
2022/04/24 11:38:53;;;;;;;1.40;0.90;;;21.90;61.80;;;;;;5098951;28;20459;-77
2022/04/24 11:41:21;;;;;;;1.50;0.90;;;21.90;62.20;;;;;;5094415;28;20868;-76
2022/04/24 11:43:48;;;;;;;1.40;0.80;;;22.20;61.60;;;;;;5098717;28;20491;-78
2022/04/24 11:51:52;;;;;;;1.47;0.93;;;21.20;62.50;;;;;;5092898;28;20451;-77
2022/04/24 11:54:19;;;;;;;1.43;0.80;;;21.00;63.30;;;;;;5092790;28;20694;-77
2022/04/24 11:56:50;;;;;;;1.47;0.80;;;21.20;63.10;;;;;;5098868;28;20856;-77
2022/04/24 11:59:19;;;;;;;1.43;0.90;;;21.60;63.80;;;;;;5094854;28;20540;-77
2022/04/24 12:01:57;;;;;;;1.50;1.10;;;22.10;62.30;;;;;;5101055;28;20484;-78
2022/04/24 12:04:28;;;;;;;1.50;1.03;;;22.30;60.20;;;;;;5096835;28;20480;-79
2022/04/24 12:07:02;;;;;;;1.50;1.20;;;22.40;60.30;;;;;;5099101;28;20463;-76
2022/04/24 12:09:32;;;;;;;1.43;0.87;;;22.50;61.00;;;;;;5103298;28;20490;-78
2022/04/24 12:12:07;;;;;;;2.17;1.97;;;22.70;60.50;;;;;;5096759;28;20453;-76
2022/04/24 12:14:35;;;;;;;1.50;1.13;;;22.90;60.00;;;;;;5094485;28;20540;-77
2022/04/24 12:17:05;;;;;;;1.47;0.90;;;23.00;60.30;;;;;;5089659;28;20495;-78
2022/04/24 12:19:35;;;;;;;1.47;0.90;;;22.90;59.10;;;;;;5093031;28;20468;-76
2022/04/24 12:22:08;;;;;;;1.40;0.90;;;22.80;59.40;;;;;;5096318;28;20492;-77
2022/04/24 12:24:42;;;;;;;1.50;0.90;;;23.10;60.10;;;;;;5093140;28;20503;-77
2022/04/24 12:27:12;;;;;;;2.47;1.87;;;23.20;59.20;;;;;;5096264;28;20972;-80
2022/04/24 12:29:41;;;;;;;1.40;0.90;;;23.60;58.20;;;;;;5099773;28;20483;-78
2022/04/24 12:32:12;;;;;;;1.47;0.90;;;23.50;58.20;;;;;;5096865;28;20490;-80
2022/04/24 12:34:45;;;;;;;1.40;0.90;;;23.60;57.70;;;;;;5099339;28;20487;-77
2022/04/24 12:37:18;;;;;;;1.47;0.90;;;23.40;56.80;;;;;;5094369;28;20477;-76
2022/04/24 12:39:54;;;;;;;1.40;0.90;;;22.90;57.60;;;;;;5100948;28;20456;-81
2022/04/24 12:42:22;;;;;;;1.40;0.80;;;22.70;60.00;;;;;;5094180;28;20456;-78
2022/04/24 12:45:05;;;;;;;1.47;0.90;;;22.90;60.30;;;;;;5094816;28;20483;-77
2022/04/24 12:47:33;;;;;;;1.50;1.10;;;23.10;58.20;;;;;;5097254;28;20679;-79
2022/04/24 12:50:05;;;;;;;1.43;0.87;;;23.40;58.50;;;;;;5104218;28;20536;-85
2022/04/24 12:52:32;;;;;;;1.40;0.80;;;23.50;58.50;;;;;;5104651;28;20492;-79
2022/04/24 12:55:00;;;;;;;1.40;0.80;;;23.70;56.50;;;;;;5105112;28;20475;-77
2022/04/24 12:57:27;;;;;;;1.50;1.00;;;23.80;57.40;;;;;;5106028;28;20459;-78
2022/04/24 13:00:09;;;;;;;1.50;1.00;;;23.90;56.80;;;;;;5105078;28;20467;-78
2022/04/24 13:02:37;;;;;;;1.50;0.90;;;23.90;55.50;;;;;;5103536;28;20456;-78
2022/04/24 13:05:06;;;;;;;1.50;0.93;;;23.70;56.30;;;;;;5104566;28;20574;-78
2022/04/24 13:07:33;;;;;;;1.43;0.90;;;23.40;56.20;;;;;;5102329;28;20486;-79